sensor_id;sensor_type;location;lat;lon;timestamp;P1;durP1;ratioP1;P2;durP2;ratioP2
24799;SDS011;12897;50.812;4.430;2022-09-09T00:04:58;8.53;;;1.60;;
24799;SDS011;12897;50.812;4.430;2022-09-09T00:07:48;8.23;;;1.55;;
24799;SDS011;12897;50.812;4.430;2022-09-09T00:15:52;7.55;;;1.27;;
24799;SDS011;12897;50.812;4.430;2022-09-09T00:21:05;7.58;;;1.55;;
24799;SDS011;12897;50.812;4.430;2022-09-09T00:23:38;8.60;;;2.40;;
24799;SDS011;12897;50.812;4.430;2022-09-09T00:26:15;9.70;;;1.60;;
24799;SDS011;12897;50.812;4.430;2022-09-09T00:31:35;5.12;;;1.60;;
24799;SDS011;12897;50.812;4.430;2022-09-09T00:34:11;5.62;;;1.60;;
24799;SDS011;12897;50.812;4.430;2022-09-09T00:36:40;8.53;;;1.90;;
24799;SDS011;12897;50.812;4.430;2022-09-09T00:39:13;13.00;;;2.05;;
24799;SDS011;12897;50.812;4.430;2022-09-09T00:42:00;5.47;;;1.70;;
24799;SDS011;12897;50.812;4.430;2022-09-09T00:44:33;6.72;;;1.60;;
24799;SDS011;12897;50.812;4.430;2022-09-09T00:47:07;4.75;;;1.45;;
24799;SDS011;12897;50.812;4.430;2022-09-09T00:49:57;9.70;;;1.80;;
24799;SDS011;12897;50.812;4.430;2022-09-09T00:52:32;6.47;;;1.80;;
24799;SDS011;12897;50.812;4.430;2022-09-09T00:55:13;9.83;;;1.57;;
24799;SDS011;12897;50.812;4.430;2022-09-09T00:57:41;9.80;;;1.70;;
24799;SDS011;12897;50.812;4.430;2022-09-09T01:05:51;10.58;;;2.00;;
24799;SDS011;12897;50.812;4.430;2022-09-09T01:11:26;11.90;;;1.47;;
24799;SDS011;12897;50.812;4.430;2022-09-09T01:14:01;12.47;;;1.92;;
24799;SDS011;12897;50.812;4.430;2022-09-09T01:16:38;9.93;;;2.00;;
24799;SDS011;12897;50.812;4.430;2022-09-09T01:19:07;9.68;;;1.67;;
24799;SDS011;12897;50.812;4.430;2022-09-09T01:21:40;6.58;;;1.75;;
24799;SDS011;12897;50.812;4.430;2022-09-09T01:27:03;9.18;;;1.80;;
24799;SDS011;12897;50.812;4.430;2022-09-09T01:29:32;6.12;;;1.90;;
24799;SDS011;12897;50.812;4.430;2022-09-09T01:37:59;5.95;;;1.80;;
24799;SDS011;12897;50.812;4.430;2022-09-09T01:40:27;8.73;;;2.02;;
24799;SDS011;12897;50.812;4.430;2022-09-09T01:42:55;9.08;;;2.22;;
24799;SDS011;12897;50.812;4.430;2022-09-09T01:45:22;16.50;;;1.95;;
24799;SDS011;12897;50.812;4.430;2022-09-09T01:47:51;11.15;;;2.55;;
24799;SDS011;12897;50.812;4.430;2022-09-09T01:50:20;12.65;;;2.50;;
24799;SDS011;12897;50.812;4.430;2022-09-09T01:52:50;9.83;;;2.15;;
24799;SDS011;12897;50.812;4.430;2022-09-09T01:55:20;11.70;;;2.37;;
24799;SDS011;12897;50.812;4.430;2022-09-09T01:57:56;8.75;;;2.77;;
24799;SDS011;12897;50.812;4.430;2022-09-09T02:00:41;12.63;;;3.00;;
24799;SDS011;12897;50.812;4.430;2022-09-09T02:11:19;9.33;;;2.15;;
24799;SDS011;12897;50.812;4.430;2022-09-09T02:13:49;12.37;;;2.40;;
24799;SDS011;12897;50.812;4.430;2022-09-09T02:16:34;14.45;;;2.45;;
24799;SDS011;12897;50.812;4.430;2022-09-09T02:21:37;19.05;;;3.47;;
24799;SDS011;12897;50.812;4.430;2022-09-09T02:24:09;13.53;;;2.52;;
24799;SDS011;12897;50.812;4.430;2022-09-09T02:26:40;14.28;;;2.40;;
24799;SDS011;12897;50.812;4.430;2022-09-09T02:31:43;14.53;;;2.30;;
24799;SDS011;12897;50.812;4.430;2022-09-09T02:34:13;16.67;;;2.50;;
24799;SDS011;12897;50.812;4.430;2022-09-09T02:36:43;14.53;;;2.50;;
24799;SDS011;12897;50.812;4.430;2022-09-09T02:39:12;10.60;;;2.53;;
24799;SDS011;12897;50.812;4.430;2022-09-09T02:41:41;16.17;;;2.55;;
24799;SDS011;12897;50.812;4.430;2022-09-09T02:44:10;12.78;;;2.40;;
24799;SDS011;12897;50.812;4.430;2022-09-09T02:52:06;13.68;;;2.83;;
24799;SDS011;12897;50.812;4.430;2022-09-09T02:54:39;11.53;;;2.17;;
24799;SDS011;12897;50.812;4.430;2022-09-09T02:57:18;14.68;;;2.30;;
24799;SDS011;12897;50.812;4.430;2022-09-09T02:59:50;13.68;;;2.62;;
24799;SDS011;12897;50.812;4.430;2022-09-09T03:02:18;13.35;;;2.25;;
24799;SDS011;12897;50.812;4.430;2022-09-09T03:04:47;12.68;;;2.75;;
24799;SDS011;12897;50.812;4.430;2022-09-09T03:07:20;12.78;;;2.58;;
24799;SDS011;12897;50.812;4.430;2022-09-09T03:09:48;13.65;;;2.25;;
24799;SDS011;12897;50.812;4.430;2022-09-09T03:12:15;17.87;;;2.55;;
24799;SDS011;12897;50.812;4.430;2022-09-09T03:14:43;12.70;;;2.45;;
24799;SDS011;12897;50.812;4.430;2022-09-09T03:17:11;14.58;;;2.47;;
24799;SDS011;12897;50.812;4.430;2022-09-09T03:19:39;14.53;;;2.77;;
24799;SDS011;12897;50.812;4.430;2022-09-09T03:22:09;15.13;;;2.65;;
24799;SDS011;12897;50.812;4.430;2022-09-09T03:24:39;14.87;;;2.80;;
24799;SDS011;12897;50.812;4.430;2022-09-09T03:27:06;14.00;;;2.47;;
24799;SDS011;12897;50.812;4.430;2022-09-09T03:29:34;11.97;;;2.83;;
24799;SDS011;12897;50.812;4.430;2022-09-09T03:32:02;14.18;;;2.70;;
24799;SDS011;12897;50.812;4.430;2022-09-09T03:34:32;18.23;;;3.27;;
24799;SDS011;12897;50.812;4.430;2022-09-09T03:37:01;17.37;;;2.95;;
24799;SDS011;12897;50.812;4.430;2022-09-09T03:39:30;15.38;;;3.15;;
24799;SDS011;12897;50.812;4.430;2022-09-09T03:41:57;12.93;;;2.47;;
24799;SDS011;12897;50.812;4.430;2022-09-09T03:44:25;11.38;;;2.83;;
24799;SDS011;12897;50.812;4.430;2022-09-09T03:46:52;13.55;;;3.02;;
24799;SDS011;12897;50.812;4.430;2022-09-09T03:49:21;11.83;;;2.65;;
24799;SDS011;12897;50.812;4.430;2022-09-09T03:51:50;18.80;;;2.85;;
24799;SDS011;12897;50.812;4.430;2022-09-09T03:54:17;13.00;;;2.60;;
24799;SDS011;12897;50.812;4.430;2022-09-09T03:56:46;17.62;;;3.27;;
24799;SDS011;12897;50.812;4.430;2022-09-09T03:59:14;14.98;;;2.45;;
24799;SDS011;12897;50.812;4.430;2022-09-09T04:01:41;13.48;;;2.60;;
24799;SDS011;12897;50.812;4.430;2022-09-09T04:04:11;19.60;;;3.00;;
24799;SDS011;12897;50.812;4.430;2022-09-09T04:06:38;17.37;;;2.77;;
24799;SDS011;12897;50.812;4.430;2022-09-09T04:09:06;17.35;;;2.75;;
24799;SDS011;12897;50.812;4.430;2022-09-09T04:11:34;16.12;;;2.95;;
24799;SDS011;12897;50.812;4.430;2022-09-09T04:14:02;19.70;;;3.08;;
24799;SDS011;12897;50.812;4.430;2022-09-09T04:16:32;20.63;;;3.57;;
24799;SDS011;12897;50.812;4.430;2022-09-09T04:19:03;12.63;;;2.62;;
24799;SDS011;12897;50.812;4.430;2022-09-09T04:21:33;14.75;;;2.62;;
24799;SDS011;12897;50.812;4.430;2022-09-09T04:24:01;14.40;;;3.37;;
24799;SDS011;12897;50.812;4.430;2022-09-09T04:26:28;14.95;;;2.40;;
24799;SDS011;12897;50.812;4.430;2022-09-09T04:28:56;14.40;;;2.75;;
24799;SDS011;12897;50.812;4.430;2022-09-09T04:31:24;18.98;;;3.22;;
24799;SDS011;12897;50.812;4.430;2022-09-09T04:33:52;15.72;;;3.00;;
24799;SDS011;12897;50.812;4.430;2022-09-09T04:36:20;24.35;;;3.92;;
24799;SDS011;12897;50.812;4.430;2022-09-09T04:38:50;17.23;;;2.60;;
24799;SDS011;12897;50.812;4.430;2022-09-09T04:41:18;15.53;;;2.65;;
24799;SDS011;12897;50.812;4.430;2022-09-09T04:43:46;17.73;;;3.98;;
24799;SDS011;12897;50.812;4.430;2022-09-09T04:46:14;22.15;;;3.30;;
24799;SDS011;12897;50.812;4.430;2022-09-09T04:48:45;15.30;;;2.75;;
24799;SDS011;12897;50.812;4.430;2022-09-09T04:51:13;17.70;;;3.55;;
24799;SDS011;12897;50.812;4.430;2022-09-09T04:53:41;12.95;;;2.85;;
24799;SDS011;12897;50.812;4.430;2022-09-09T04:56:13;13.58;;;2.92;;
24799;SDS011;12897;50.812;4.430;2022-09-09T04:58:42;16.95;;;3.12;;
24799;SDS011;12897;50.812;4.430;2022-09-09T05:01:12;15.93;;;3.55;;
24799;SDS011;12897;50.812;4.430;2022-09-09T05:03:43;18.92;;;3.60;;
24799;SDS011;12897;50.812;4.430;2022-09-09T05:06:15;17.60;;;3.75;;
24799;SDS011;12897;50.812;4.430;2022-09-09T05:08:44;15.40;;;4.28;;
24799;SDS011;12897;50.812;4.430;2022-09-09T05:11:22;14.28;;;3.30;;
24799;SDS011;12897;50.812;4.430;2022-09-09T05:13:53;17.32;;;4.08;;
24799;SDS011;12897;50.812;4.430;2022-09-09T05:16:23;18.77;;;3.25;;
24799;SDS011;12897;50.812;4.430;2022-09-09T05:18:52;20.68;;;3.25;;
24799;SDS011;12897;50.812;4.430;2022-09-09T05:21:20;22.75;;;3.92;;
24799;SDS011;12897;50.812;4.430;2022-09-09T05:23:49;17.90;;;3.50;;
24799;SDS011;12897;50.812;4.430;2022-09-09T05:26:19;18.07;;;3.12;;
24799;SDS011;12897;50.812;4.430;2022-09-09T05:28:49;23.90;;;3.62;;
24799;SDS011;12897;50.812;4.430;2022-09-09T05:31:17;18.00;;;3.27;;
24799;SDS011;12897;50.812;4.430;2022-09-09T05:33:46;24.52;;;4.03;;
24799;SDS011;12897;50.812;4.430;2022-09-09T05:36:16;20.72;;;3.83;;
24799;SDS011;12897;50.812;4.430;2022-09-09T05:38:46;18.40;;;3.70;;
24799;SDS011;12897;50.812;4.430;2022-09-09T05:41:15;21.67;;;3.50;;
24799;SDS011;12897;50.812;4.430;2022-09-09T05:46:15;23.57;;;3.80;;
24799;SDS011;12897;50.812;4.430;2022-09-09T05:48:46;21.40;;;3.30;;
24799;SDS011;12897;50.812;4.430;2022-09-09T05:51:19;17.55;;;2.98;;
24799;SDS011;12897;50.812;4.430;2022-09-09T05:53:48;16.82;;;3.70;;
24799;SDS011;12897;50.812;4.430;2022-09-09T05:56:20;18.65;;;3.17;;
24799;SDS011;12897;50.812;4.430;2022-09-09T05:59:02;17.32;;;3.20;;
24799;SDS011;12897;50.812;4.430;2022-09-09T06:01:32;19.02;;;3.00;;
24799;SDS011;12897;50.812;4.430;2022-09-09T06:04:04;20.08;;;3.58;;
24799;SDS011;12897;50.812;4.430;2022-09-09T06:06:32;18.27;;;2.87;;
24799;SDS011;12897;50.812;4.430;2022-09-09T06:09:05;17.60;;;3.00;;
24799;SDS011;12897;50.812;4.430;2022-09-09T06:11:37;15.95;;;3.72;;
24799;SDS011;12897;50.812;4.430;2022-09-09T06:14:07;21.80;;;3.50;;
24799;SDS011;12897;50.812;4.430;2022-09-09T06:16:35;25.97;;;3.25;;
24799;SDS011;12897;50.812;4.430;2022-09-09T06:19:03;21.85;;;3.33;;
24799;SDS011;12897;50.812;4.430;2022-09-09T06:21:32;11.40;;;3.25;;
24799;SDS011;12897;50.812;4.430;2022-09-09T06:24:04;18.30;;;2.90;;
24799;SDS011;12897;50.812;4.430;2022-09-09T06:26:34;19.07;;;3.12;;
24799;SDS011;12897;50.812;4.430;2022-09-09T06:29:06;17.17;;;2.80;;
24799;SDS011;12897;50.812;4.430;2022-09-09T06:31:34;18.67;;;3.25;;
24799;SDS011;12897;50.812;4.430;2022-09-09T06:34:08;17.42;;;3.70;;
24799;SDS011;12897;50.812;4.430;2022-09-09T06:36:33;22.48;;;3.40;;
24799;SDS011;12897;50.812;4.430;2022-09-09T06:39:03;16.02;;;2.50;;
24799;SDS011;12897;50.812;4.430;2022-09-09T06:41:33;13.40;;;2.55;;
24799;SDS011;12897;50.812;4.430;2022-09-09T06:44:01;18.12;;;3.37;;
24799;SDS011;12897;50.812;4.430;2022-09-09T06:46:30;16.57;;;2.95;;
24799;SDS011;12897;50.812;4.430;2022-09-09T06:48:58;19.05;;;3.05;;
24799;SDS011;12897;50.812;4.430;2022-09-09T06:51:28;14.23;;;2.90;;
24799;SDS011;12897;50.812;4.430;2022-09-09T06:56:25;18.10;;;3.00;;
24799;SDS011;12897;50.812;4.430;2022-09-09T06:58:57;17.15;;;3.17;;
24799;SDS011;12897;50.812;4.430;2022-09-09T07:01:34;16.37;;;2.52;;
24799;SDS011;12897;50.812;4.430;2022-09-09T07:03:59;20.40;;;2.90;;
24799;SDS011;12897;50.812;4.430;2022-09-09T07:06:28;15.67;;;2.43;;
24799;SDS011;12897;50.812;4.430;2022-09-09T07:08:59;16.77;;;2.65;;
24799;SDS011;12897;50.812;4.430;2022-09-09T07:11:30;9.43;;;2.33;;
24799;SDS011;12897;50.812;4.430;2022-09-09T07:14:00;22.55;;;2.52;;
24799;SDS011;12897;50.812;4.430;2022-09-09T07:16:27;23.40;;;2.83;;
24799;SDS011;12897;50.812;4.430;2022-09-09T07:18:57;20.48;;;3.08;;
24799;SDS011;12897;50.812;4.430;2022-09-09T07:21:29;19.32;;;3.30;;
24799;SDS011;12897;50.812;4.430;2022-09-09T07:23:59;17.80;;;3.30;;
24799;SDS011;12897;50.812;4.430;2022-09-09T07:26:29;20.95;;;2.87;;
24799;SDS011;12897;50.812;4.430;2022-09-09T07:28:57;12.07;;;2.27;;
24799;SDS011;12897;50.812;4.430;2022-09-09T07:31:27;15.03;;;2.60;;
24799;SDS011;12897;50.812;4.430;2022-09-09T07:33:58;16.05;;;2.52;;
24799;SDS011;12897;50.812;4.430;2022-09-09T07:36:30;16.07;;;2.45;;
24799;SDS011;12897;50.812;4.430;2022-09-09T07:39:03;22.75;;;4.90;;
24799;SDS011;12897;50.812;4.430;2022-09-09T07:44:06;18.77;;;2.77;;
24799;SDS011;12897;50.812;4.430;2022-09-09T07:46:36;15.53;;;3.00;;
24799;SDS011;12897;50.812;4.430;2022-09-09T07:49:05;15.10;;;3.08;;
24799;SDS011;12897;50.812;4.430;2022-09-09T07:51:35;13.32;;;3.02;;
24799;SDS011;12897;50.812;4.430;2022-09-09T07:54:06;13.53;;;2.87;;
24799;SDS011;12897;50.812;4.430;2022-09-09T07:56:37;13.43;;;3.60;;
24799;SDS011;12897;50.812;4.430;2022-09-09T07:59:07;16.97;;;2.87;;
24799;SDS011;12897;50.812;4.430;2022-09-09T08:01:37;19.00;;;4.00;;
24799;SDS011;12897;50.812;4.430;2022-09-09T08:04:07;16.93;;;3.02;;
24799;SDS011;12897;50.812;4.430;2022-09-09T08:06:39;23.40;;;3.08;;
24799;SDS011;12897;50.812;4.430;2022-09-09T08:09:08;15.28;;;2.50;;
24799;SDS011;12897;50.812;4.430;2022-09-09T08:11:38;16.93;;;2.72;;
24799;SDS011;12897;50.812;4.430;2022-09-09T08:14:07;13.65;;;2.77;;
24799;SDS011;12897;50.812;4.430;2022-09-09T08:16:38;15.83;;;3.12;;
24799;SDS011;12897;50.812;4.430;2022-09-09T08:19:07;16.52;;;3.05;;
24799;SDS011;12897;50.812;4.430;2022-09-09T08:21:36;14.78;;;2.87;;
24799;SDS011;12897;50.812;4.430;2022-09-09T08:24:05;16.42;;;2.95;;
24799;SDS011;12897;50.812;4.430;2022-09-09T08:26:36;16.00;;;3.12;;
24799;SDS011;12897;50.812;4.430;2022-09-09T08:29:05;16.05;;;3.52;;
24799;SDS011;12897;50.812;4.430;2022-09-09T08:31:35;14.83;;;3.20;;
24799;SDS011;12897;50.812;4.430;2022-09-09T08:36:35;13.68;;;2.87;;
24799;SDS011;12897;50.812;4.430;2022-09-09T08:39:04;15.78;;;2.87;;
24799;SDS011;12897;50.812;4.430;2022-09-09T08:41:51;11.90;;;2.92;;
24799;SDS011;12897;50.812;4.430;2022-09-09T08:55:46;15.98;;;2.52;;
24799;SDS011;12897;50.812;4.430;2022-09-09T08:58:19;15.88;;;2.47;;
24799;SDS011;12897;50.812;4.430;2022-09-09T09:00:54;16.95;;;3.02;;
24799;SDS011;12897;50.812;4.430;2022-09-09T09:03:23;13.35;;;2.77;;
24799;SDS011;12897;50.812;4.430;2022-09-09T09:06:13;10.40;;;2.90;;
24799;SDS011;12897;50.812;4.430;2022-09-09T09:11:48;11.53;;;2.72;;
24799;SDS011;12897;50.812;4.430;2022-09-09T09:14:26;15.80;;;3.12;;
24799;SDS011;12897;50.812;4.430;2022-09-09T09:19:33;13.58;;;2.55;;
24799;SDS011;12897;50.812;4.430;2022-09-09T09:24:56;15.18;;;2.80;;
24799;SDS011;12897;50.812;4.430;2022-09-09T09:27:35;15.63;;;3.15;;
24799;SDS011;12897;50.812;4.430;2022-09-09T09:30:16;14.00;;;2.52;;
24799;SDS011;12897;50.812;4.430;2022-09-09T09:32:43;12.03;;;2.85;;
24799;SDS011;12897;50.812;4.430;2022-09-09T09:35:12;11.30;;;2.83;;
24799;SDS011;12897;50.812;4.430;2022-09-09T09:37:41;12.68;;;2.70;;
24799;SDS011;12897;50.812;4.430;2022-09-09T09:40:18;20.23;;;3.85;;
24799;SDS011;12897;50.812;4.430;2022-09-09T09:42:53;15.72;;;3.08;;
24799;SDS011;12897;50.812;4.430;2022-09-09T09:45:26;11.95;;;2.45;;
24799;SDS011;12897;50.812;4.430;2022-09-09T09:48:03;14.15;;;2.65;;
24799;SDS011;12897;50.812;4.430;2022-09-09T09:50:35;16.80;;;3.05;;
24799;SDS011;12897;50.812;4.430;2022-09-09T09:53:04;16.80;;;2.75;;
24799;SDS011;12897;50.812;4.430;2022-09-09T09:55:34;17.10;;;3.22;;
24799;SDS011;12897;50.812;4.430;2022-09-09T09:58:03;10.23;;;3.33;;
24799;SDS011;12897;50.812;4.430;2022-09-09T10:00:34;15.18;;;3.25;;
24799;SDS011;12897;50.812;4.430;2022-09-09T10:03:01;13.38;;;2.77;;
24799;SDS011;12897;50.812;4.430;2022-09-09T10:05:35;9.45;;;2.50;;
24799;SDS011;12897;50.812;4.430;2022-09-09T10:08:04;13.48;;;3.52;;
24799;SDS011;12897;50.812;4.430;2022-09-09T10:13:14;12.07;;;2.80;;
24799;SDS011;12897;50.812;4.430;2022-09-09T10:18:49;14.20;;;3.75;;
24799;SDS011;12897;50.812;4.430;2022-09-09T10:26:47;11.40;;;2.80;;
24799;SDS011;12897;50.812;4.430;2022-09-09T10:34:55;12.35;;;3.10;;
24799;SDS011;12897;50.812;4.430;2022-09-09T10:40:42;19.12;;;4.87;;
24799;SDS011;12897;50.812;4.430;2022-09-09T10:46:22;13.80;;;3.22;;
24799;SDS011;12897;50.812;4.430;2022-09-09T10:57:43;13.83;;;2.87;;
24799;SDS011;12897;50.812;4.430;2022-09-09T11:00:23;13.90;;;2.85;;
24799;SDS011;12897;50.812;4.430;2022-09-09T11:08:19;11.15;;;3.00;;
24799;SDS011;12897;50.812;4.430;2022-09-09T11:11:10;10.88;;;2.77;;
24799;SDS011;12897;50.812;4.430;2022-09-09T11:16:28;10.28;;;2.52;;
24799;SDS011;12897;50.812;4.430;2022-09-09T11:19:13;11.18;;;2.47;;
24799;SDS011;12897;50.812;4.430;2022-09-09T11:21:53;11.95;;;2.80;;
24799;SDS011;12897;50.812;4.430;2022-09-09T11:26:59;12.98;;;2.17;;
24799;SDS011;12897;50.812;4.430;2022-09-09T11:32:23;20.50;;;2.30;;
24799;SDS011;12897;50.812;4.430;2022-09-09T11:37:41;9.38;;;1.90;;
24799;SDS011;12897;50.812;4.430;2022-09-09T11:40:09;10.95;;;2.25;;
24799;SDS011;12897;50.812;4.430;2022-09-09T11:42:59;14.13;;;3.30;;
24799;SDS011;12897;50.812;4.430;2022-09-09T11:45:26;11.40;;;2.58;;
24799;SDS011;12897;50.812;4.430;2022-09-09T11:47:56;8.93;;;2.80;;
24799;SDS011;12897;50.812;4.430;2022-09-09T11:50:29;16.80;;;2.27;;
24799;SDS011;12897;50.812;4.430;2022-09-09T11:53:15;8.33;;;1.90;;
24799;SDS011;12897;50.812;4.430;2022-09-09T11:55:42;7.45;;;2.65;;
24799;SDS011;12897;50.812;4.430;2022-09-09T12:00:41;11.20;;;2.50;;
24799;SDS011;12897;50.812;4.430;2022-09-09T12:06:15;12.18;;;2.30;;
24799;SDS011;12897;50.812;4.430;2022-09-09T12:08:55;14.60;;;2.50;;
24799;SDS011;12897;50.812;4.430;2022-09-09T12:11:26;9.93;;;2.00;;
24799;SDS011;12897;50.812;4.430;2022-09-09T12:13:58;11.40;;;2.17;;
24799;SDS011;12897;50.812;4.430;2022-09-09T12:16:28;14.03;;;4.72;;
24799;SDS011;12897;50.812;4.430;2022-09-09T12:19:06;7.12;;;2.25;;
24799;SDS011;12897;50.812;4.430;2022-09-09T12:21:43;10.57;;;1.83;;
24799;SDS011;12897;50.812;4.430;2022-09-09T12:24:11;9.15;;;2.17;;
24799;SDS011;12897;50.812;4.430;2022-09-09T12:26:43;6.90;;;2.00;;
24799;SDS011;12897;50.812;4.430;2022-09-09T12:31:55;8.15;;;2.00;;
24799;SDS011;12897;50.812;4.430;2022-09-09T12:36:58;8.95;;;2.15;;
24799;SDS011;12897;50.812;4.430;2022-09-09T12:39:29;7.22;;;2.00;;
24799;SDS011;12897;50.812;4.430;2022-09-09T12:41:59;6.33;;;1.70;;
24799;SDS011;12897;50.812;4.430;2022-09-09T12:44:30;10.00;;;2.17;;
24799;SDS011;12897;50.812;4.430;2022-09-09T12:47:00;13.93;;;2.58;;
24799;SDS011;12897;50.812;4.430;2022-09-09T12:52:06;7.42;;;1.82;;
24799;SDS011;12897;50.812;4.430;2022-09-09T12:54:43;10.10;;;2.05;;
24799;SDS011;12897;50.812;4.430;2022-09-09T12:57:11;9.48;;;1.82;;
24799;SDS011;12897;50.812;4.430;2022-09-09T12:59:40;11.48;;;2.35;;
24799;SDS011;12897;50.812;4.430;2022-09-09T13:04:49;9.73;;;2.20;;
24799;SDS011;12897;50.812;4.430;2022-09-09T13:07:18;8.23;;;1.77;;
24799;SDS011;12897;50.812;4.430;2022-09-09T13:09:47;8.95;;;2.10;;
24799;SDS011;12897;50.812;4.430;2022-09-09T13:12:18;11.50;;;2.20;;
24799;SDS011;12897;50.812;4.430;2022-09-09T13:14:49;8.80;;;1.98;;
24799;SDS011;12897;50.812;4.430;2022-09-09T13:17:28;10.23;;;2.45;;
24799;SDS011;12897;50.812;4.430;2022-09-09T13:19:55;6.58;;;1.62;;
24799;SDS011;12897;50.812;4.430;2022-09-09T13:27:55;6.08;;;1.60;;
24799;SDS011;12897;50.812;4.430;2022-09-09T13:30:29;6.35;;;2.12;;
24799;SDS011;12897;50.812;4.430;2022-09-09T13:38:18;7.17;;;1.72;;
24799;SDS011;12897;50.812;4.430;2022-09-09T13:43:26;7.30;;;1.80;;
24799;SDS011;12897;50.812;4.430;2022-09-09T13:45:58;5.05;;;1.40;;
24799;SDS011;12897;50.812;4.430;2022-09-09T13:51:04;6.35;;;1.57;;
24799;SDS011;12897;50.812;4.430;2022-09-09T13:53:34;5.25;;;1.70;;
24799;SDS011;12897;50.812;4.430;2022-09-09T13:56:03;5.70;;;1.70;;
24799;SDS011;12897;50.812;4.430;2022-09-09T13:58:31;11.28;;;2.20;;
24799;SDS011;12897;50.812;4.430;2022-09-09T14:01:01;8.60;;;2.00;;
24799;SDS011;12897;50.812;4.430;2022-09-09T14:03:30;5.97;;;1.80;;
24799;SDS011;12897;50.812;4.430;2022-09-09T14:05:57;3.50;;;1.32;;
24799;SDS011;12897;50.812;4.430;2022-09-09T14:08:26;7.28;;;1.82;;
24799;SDS011;12897;50.812;4.430;2022-09-09T14:10:57;3.87;;;1.55;;
24799;SDS011;12897;50.812;4.430;2022-09-09T14:15:52;9.48;;;1.95;;
24799;SDS011;12897;50.812;4.430;2022-09-09T14:18:21;7.00;;;2.30;;
24799;SDS011;12897;50.812;4.430;2022-09-09T14:20:51;6.95;;;1.90;;
24799;SDS011;12897;50.812;4.430;2022-09-09T14:23:22;7.42;;;1.70;;
24799;SDS011;12897;50.812;4.430;2022-09-09T14:25:51;9.68;;;2.40;;
24799;SDS011;12897;50.812;4.430;2022-09-09T14:28:19;9.10;;;2.25;;
24799;SDS011;12897;50.812;4.430;2022-09-09T14:30:46;7.30;;;1.98;;
24799;SDS011;12897;50.812;4.430;2022-09-09T14:33:15;8.78;;;2.15;;
24799;SDS011;12897;50.812;4.430;2022-09-09T14:35:55;5.47;;;1.90;;
24799;SDS011;12897;50.812;4.430;2022-09-09T14:38:33;8.65;;;2.10;;
24799;SDS011;12897;50.812;4.430;2022-09-09T14:41:11;9.78;;;1.90;;
24799;SDS011;12897;50.812;4.430;2022-09-09T14:43:42;8.20;;;1.80;;
24799;SDS011;12897;50.812;4.430;2022-09-09T14:46:11;8.18;;;2.10;;
24799;SDS011;12897;50.812;4.430;2022-09-09T14:48:40;7.67;;;1.80;;
24799;SDS011;12897;50.812;4.430;2022-09-09T14:51:11;5.67;;;1.90;;
24799;SDS011;12897;50.812;4.430;2022-09-09T14:53:41;6.30;;;2.27;;
24799;SDS011;12897;50.812;4.430;2022-09-09T14:56:12;9.45;;;1.98;;
24799;SDS011;12897;50.812;4.430;2022-09-09T14:58:44;5.22;;;2.00;;
24799;SDS011;12897;50.812;4.430;2022-09-09T15:01:18;9.40;;;1.85;;
24799;SDS011;12897;50.812;4.430;2022-09-09T15:03:49;9.23;;;1.82;;
24799;SDS011;12897;50.812;4.430;2022-09-09T15:06:19;6.53;;;1.80;;
24799;SDS011;12897;50.812;4.430;2022-09-09T15:08:50;10.43;;;1.60;;
24799;SDS011;12897;50.812;4.430;2022-09-09T15:11:20;6.12;;;1.55;;
24799;SDS011;12897;50.812;4.430;2022-09-09T15:13:50;7.83;;;1.72;;
24799;SDS011;12897;50.812;4.430;2022-09-09T15:16:24;6.80;;;1.80;;
24799;SDS011;12897;50.812;4.430;2022-09-09T15:18:56;6.95;;;1.55;;
24799;SDS011;12897;50.812;4.430;2022-09-09T15:21:27;7.05;;;1.82;;
24799;SDS011;12897;50.812;4.430;2022-09-09T15:24:00;7.97;;;2.22;;
24799;SDS011;12897;50.812;4.430;2022-09-09T15:26:27;11.10;;;1.98;;
24799;SDS011;12897;50.812;4.430;2022-09-09T15:28:56;16.30;;;2.70;;
24799;SDS011;12897;50.812;4.430;2022-09-09T15:31:27;8.90;;;1.90;;
24799;SDS011;12897;50.812;4.430;2022-09-09T15:33:56;5.70;;;1.80;;
24799;SDS011;12897;50.812;4.430;2022-09-09T15:36:33;8.15;;;2.27;;
24799;SDS011;12897;50.812;4.430;2022-09-09T15:39:04;7.60;;;1.95;;
24799;SDS011;12897;50.812;4.430;2022-09-09T15:41:38;13.38;;;2.45;;
24799;SDS011;12897;50.812;4.430;2022-09-09T15:44:09;21.12;;;2.40;;
24799;SDS011;12897;50.812;4.430;2022-09-09T15:46:39;6.83;;;1.87;;
24799;SDS011;12897;50.812;4.430;2022-09-09T15:49:18;12.82;;;2.15;;
24799;SDS011;12897;50.812;4.430;2022-09-09T15:51:54;7.55;;;2.12;;
24799;SDS011;12897;50.812;4.430;2022-09-09T15:54:30;6.20;;;1.85;;
24799;SDS011;12897;50.812;4.430;2022-09-09T15:57:01;7.47;;;2.30;;
24799;SDS011;12897;50.812;4.430;2022-09-09T15:59:32;7.67;;;1.75;;
24799;SDS011;12897;50.812;4.430;2022-09-09T16:02:02;8.13;;;2.02;;
24799;SDS011;12897;50.812;4.430;2022-09-09T16:07:01;11.40;;;1.90;;
24799;SDS011;12897;50.812;4.430;2022-09-09T16:09:33;5.90;;;1.62;;
24799;SDS011;12897;50.812;4.430;2022-09-09T16:12:01;9.28;;;2.50;;
24799;SDS011;12897;50.812;4.430;2022-09-09T16:14:37;9.00;;;2.10;;
24799;SDS011;12897;50.812;4.430;2022-09-09T16:19:42;7.97;;;2.52;;
24799;SDS011;12897;50.812;4.430;2022-09-09T16:22:11;7.58;;;2.50;;
24799;SDS011;12897;50.812;4.430;2022-09-09T16:24:40;5.25;;;1.80;;
24799;SDS011;12897;50.812;4.430;2022-09-09T16:27:11;9.10;;;2.00;;
24799;SDS011;12897;50.812;4.430;2022-09-09T16:32:06;12.98;;;3.45;;
24799;SDS011;12897;50.812;4.430;2022-09-09T16:34:38;8.15;;;1.75;;
24799;SDS011;12897;50.812;4.430;2022-09-09T16:37:13;6.72;;;1.60;;
24799;SDS011;12897;50.812;4.430;2022-09-09T16:39:37;7.67;;;2.25;;
24799;SDS011;12897;50.812;4.430;2022-09-09T16:42:26;8.15;;;1.90;;
24799;SDS011;12897;50.812;4.430;2022-09-09T16:45:13;5.35;;;1.37;;
24799;SDS011;12897;50.812;4.430;2022-09-09T16:47:44;5.55;;;1.62;;
24799;SDS011;12897;50.812;4.430;2022-09-09T16:50:12;5.87;;;1.95;;
24799;SDS011;12897;50.812;4.430;2022-09-09T16:52:41;6.17;;;1.63;;
24799;SDS011;12897;50.812;4.430;2022-09-09T16:55:08;4.60;;;1.70;;
24799;SDS011;12897;50.812;4.430;2022-09-09T16:57:39;5.40;;;1.92;;
24799;SDS011;12897;50.812;4.430;2022-09-09T17:00:07;9.80;;;2.35;;
24799;SDS011;12897;50.812;4.430;2022-09-09T17:02:37;6.22;;;1.87;;
24799;SDS011;12897;50.812;4.430;2022-09-09T17:05:07;5.87;;;1.85;;
24799;SDS011;12897;50.812;4.430;2022-09-09T17:07:35;6.40;;;2.00;;
24799;SDS011;12897;50.812;4.430;2022-09-09T17:10:03;4.70;;;1.65;;
24799;SDS011;12897;50.812;4.430;2022-09-09T17:12:31;6.97;;;2.10;;
24799;SDS011;12897;50.812;4.430;2022-09-09T17:17:32;8.35;;;2.12;;
24799;SDS011;12897;50.812;4.430;2022-09-09T17:20:00;9.03;;;2.47;;
24799;SDS011;12897;50.812;4.430;2022-09-09T17:22:31;10.40;;;1.90;;
24799;SDS011;12897;50.812;4.430;2022-09-09T17:25:00;8.80;;;2.30;;
24799;SDS011;12897;50.812;4.430;2022-09-09T17:27:30;7.80;;;2.00;;
24799;SDS011;12897;50.812;4.430;2022-09-09T17:30:00;6.33;;;1.87;;
24799;SDS011;12897;50.812;4.430;2022-09-09T17:32:28;9.95;;;2.30;;
24799;SDS011;12897;50.812;4.430;2022-09-09T17:34:56;9.78;;;2.15;;
24799;SDS011;12897;50.812;4.430;2022-09-09T17:37:26;10.30;;;2.27;;
24799;SDS011;12897;50.812;4.430;2022-09-09T17:39:54;9.00;;;2.12;;
24799;SDS011;12897;50.812;4.430;2022-09-09T17:42:22;5.33;;;2.08;;
24799;SDS011;12897;50.812;4.430;2022-09-09T17:44:49;12.00;;;2.65;;
24799;SDS011;12897;50.812;4.430;2022-09-09T17:47:17;9.63;;;1.90;;
24799;SDS011;12897;50.812;4.430;2022-09-09T17:49:45;7.70;;;2.47;;
24799;SDS011;12897;50.812;4.430;2022-09-09T17:52:14;12.10;;;2.25;;
24799;SDS011;12897;50.812;4.430;2022-09-09T17:54:43;12.05;;;3.10;;